createdAt,value
2017-09-24T00:00:45.664Z,32.60
2017-09-24T00:03:13.150Z,29.93
2017-09-24T00:05:40.610Z,32.67
2017-09-24T00:08:08.070Z,32.77
2017-09-24T00:10:35.550Z,31.70
2017-09-24T00:13:03.006Z,30.23
2017-09-24T00:15:30.470Z,31.37
2017-09-24T00:17:57.954Z,30.10
2017-09-24T00:20:25.414Z,30.90
2017-09-24T00:22:52.874Z,34.30
2017-09-24T00:25:20.351Z,31.67
2017-09-24T00:27:47.811Z,30.80
2017-09-24T00:30:15.299Z,33.10
2017-09-24T00:32:42.754Z,32.00
2017-09-24T00:35:10.222Z,33.43
2017-09-24T00:37:37.722Z,35.93
2017-09-24T00:40:05.183Z,40.80
2017-09-24T00:42:32.642Z,39.87
2017-09-24T00:45:00.123Z,43.10
2017-09-24T00:47:27.593Z,40.50
2017-09-24T00:49:55.046Z,39.40
2017-09-24T00:52:22.530Z,38.10
2017-09-24T00:54:49.990Z,40.17
2017-09-24T00:57:18.339Z,39.27
2017-09-24T00:59:45.826Z,40.27
2017-09-24T01:02:13.528Z,37.87
2017-09-24T01:04:41.255Z,39.47
2017-09-24T01:07:08.795Z,38.80
2017-09-24T01:09:36.610Z,38.70
2017-09-24T01:12:04.078Z,47.37
2017-09-24T01:14:31.802Z,59.67
2017-09-24T01:16:59.318Z,78.80
2017-09-24T01:19:26.804Z,65.37
2017-09-24T01:21:54.265Z,57.30
2017-09-24T01:24:21.722Z,46.67
2017-09-24T01:26:49.202Z,44.60
2017-09-24T01:29:16.663Z,46.83
2017-09-24T01:31:44.127Z,43.90
2017-09-24T01:34:11.602Z,44.20
2017-09-24T01:36:39.086Z,44.60
2017-09-24T01:39:07.423Z,43.77
2017-09-24T01:41:34.898Z,41.57
2017-09-24T01:44:02.354Z,44.03
2017-09-24T01:46:29.830Z,45.60
2017-09-24T01:48:57.318Z,37.97
2017-09-24T01:51:24.778Z,37.50
2017-09-24T01:53:52.282Z,36.40
2017-09-24T01:56:19.738Z,36.70
2017-09-24T01:58:47.190Z,34.90
2017-09-24T02:01:14.670Z,35.23
2017-09-24T02:03:42.138Z,33.87
2017-09-24T02:06:09.599Z,33.77
2017-09-24T02:08:37.090Z,32.20
2017-09-24T02:11:04.546Z,36.27
2017-09-24T02:13:32.002Z,35.50
2017-09-24T02:15:59.498Z,36.03
2017-09-24T02:18:26.951Z,43.90
2017-09-24T02:20:54.406Z,39.13
2017-09-24T02:23:21.892Z,40.50
2017-09-24T02:25:49.358Z,37.60
2017-09-24T02:28:16.818Z,41.13
2017-09-24T02:30:44.302Z,38.00
2017-09-24T02:33:11.759Z,38.03
2017-09-24T02:35:39.214Z,39.30
2017-09-24T02:38:06.698Z,42.63
2017-09-24T02:40:34.198Z,38.83
2017-09-24T02:43:01.654Z,38.17
2017-09-24T02:45:29.137Z,39.10
2017-09-24T02:47:56.607Z,36.53
2017-09-24T02:50:24.059Z,36.30
2017-09-24T02:52:51.571Z,37.60
2017-09-24T02:55:19.022Z,37.63
2017-09-24T02:57:46.482Z,37.47
2017-09-24T03:00:13.974Z,35.97
2017-09-24T03:02:41.430Z,36.90
2017-09-24T03:05:08.883Z,40.10
2017-09-24T03:07:36.374Z,39.23
2017-09-24T03:10:03.826Z,40.73
2017-09-24T03:12:31.277Z,40.50
2017-09-24T03:14:58.758Z,41.00
2017-09-24T03:17:26.214Z,41.33
2017-09-24T03:19:53.673Z,41.23
2017-09-24T03:22:21.158Z,42.10
2017-09-24T03:24:48.621Z,40.60
2017-09-24T03:27:16.138Z,39.50
2017-09-24T03:29:43.617Z,39.97
2017-09-24T03:32:11.074Z,40.80
2017-09-24T03:34:38.530Z,40.83
2017-09-24T03:37:06.010Z,42.00
2017-09-24T03:39:33.468Z,39.80
2017-09-24T03:42:00.935Z,42.57
2017-09-24T03:44:28.422Z,41.60
2017-09-24T03:46:55.880Z,40.43
2017-09-24T03:49:23.334Z,39.60
2017-09-24T03:51:50.819Z,42.17
2017-09-24T03:54:18.279Z,41.27
2017-09-24T03:56:45.738Z,37.60
2017-09-24T03:59:13.219Z,40.30
2017-09-24T04:01:40.678Z,40.20
2017-09-24T04:04:08.137Z,38.53
2017-09-24T04:06:35.626Z,39.83
2017-09-24T04:09:03.086Z,39.50
2017-09-24T04:11:30.542Z,39.77
2017-09-24T04:13:58.022Z,41.60
2017-09-24T04:16:25.474Z,42.40
2017-09-24T04:18:52.929Z,43.77
2017-09-24T04:21:20.454Z,43.87
2017-09-24T04:23:48.510Z,47.17
2017-09-24T04:26:15.970Z,46.87
2017-09-24T04:28:43.478Z,49.83
2017-09-24T04:31:10.946Z,48.30
2017-09-24T04:33:38.405Z,48.50
2017-09-24T04:36:05.900Z,50.37
2017-09-24T04:38:33.394Z,50.00
2017-09-24T04:41:00.858Z,48.17
2017-09-24T04:43:28.382Z,50.63
2017-09-24T04:45:55.872Z,50.70
2017-09-24T04:48:23.331Z,46.20
2017-09-24T04:50:50.818Z,46.50
2017-09-24T04:53:22.254Z,47.10
2017-09-24T04:55:49.715Z,48.73
2017-09-24T04:58:17.198Z,46.23
2017-09-24T05:00:45.635Z,47.70
2017-09-24T05:03:14.626Z,44.77
2017-09-24T05:05:42.158Z,43.30
2017-09-24T05:08:09.634Z,42.27
2017-09-24T05:10:37.099Z,42.50
2017-09-24T05:13:06.033Z,44.63
2017-09-24T05:15:34.722Z,43.30
2017-09-24T05:18:08.727Z,45.40
2017-09-24T05:20:36.203Z,43.10
2017-09-24T05:23:03.654Z,39.93
2017-09-24T05:25:31.106Z,43.70
2017-09-24T05:27:58.582Z,43.50
2017-09-24T05:30:26.034Z,43.77
2017-09-24T05:32:53.481Z,44.40
2017-09-24T05:35:20.954Z,42.17
2017-09-24T05:37:48.407Z,40.80
2017-09-24T05:40:15.858Z,43.47
2017-09-24T05:42:43.353Z,40.30
2017-09-24T05:45:10.810Z,43.60
2017-09-24T05:47:38.265Z,44.00
2017-09-24T05:50:05.757Z,40.03
2017-09-24T05:52:33.210Z,42.63
2017-09-24T05:55:00.670Z,40.70
2017-09-24T05:57:28.158Z,42.60
2017-09-24T05:59:55.617Z,40.10
2017-09-24T06:02:23.071Z,43.60
2017-09-24T06:04:50.550Z,41.67
2017-09-24T06:07:22.212Z,41.87
2017-09-24T06:09:51.069Z,45.87
2017-09-24T06:12:18.613Z,46.60
2017-09-24T06:14:46.090Z,44.10
2017-09-24T06:17:13.619Z,46.40
2017-09-24T06:19:41.074Z,45.97
2017-09-24T06:22:08.538Z,45.03
2017-09-24T06:24:36.027Z,47.90
2017-09-24T06:27:03.487Z,44.57
2017-09-24T06:29:30.954Z,45.20
2017-09-24T06:31:58.435Z,43.93
2017-09-24T06:34:25.898Z,44.07
2017-09-24T06:36:53.357Z,42.67
2017-09-24T06:39:20.845Z,43.00
2017-09-24T06:41:48.298Z,42.67
2017-09-24T06:44:15.762Z,42.20
2017-09-24T06:46:43.242Z,43.10
2017-09-24T06:49:10.747Z,44.10
2017-09-24T06:51:38.586Z,44.97
2017-09-24T06:54:06.066Z,42.47
2017-09-24T06:56:33.529Z,43.07
2017-09-24T06:59:00.982Z,43.17
2017-09-24T07:01:28.458Z,43.63
2017-09-24T07:03:55.957Z,44.40
2017-09-24T07:06:23.420Z,44.97
2017-09-24T07:08:51.016Z,46.10
2017-09-24T07:11:18.526Z,44.47
2017-09-24T07:13:46.031Z,44.40
2017-09-24T07:16:14.032Z,43.50
2017-09-24T07:18:41.575Z,42.83
2017-09-24T07:21:09.113Z,42.27
2017-09-24T07:23:36.853Z,42.43
2017-09-24T07:26:04.667Z,43.10
2017-09-24T07:28:32.159Z,44.23
2017-09-24T07:30:59.619Z,44.03
2017-09-24T07:33:27.137Z,44.17
2017-09-24T07:35:54.639Z,46.43
2017-09-24T07:38:22.126Z,47.50
2017-09-24T07:40:49.670Z,49.33
2017-09-24T07:43:17.279Z,49.77
2017-09-24T07:45:44.756Z,48.70
2017-09-24T07:48:12.256Z,53.10
2017-09-24T07:50:39.758Z,54.00
2017-09-24T07:53:07.250Z,54.13
2017-09-24T07:55:34.718Z,53.10
2017-09-24T07:58:02.224Z,51.90
2017-09-24T08:00:29.712Z,54.80
2017-09-24T08:02:57.196Z,52.90
2017-09-24T08:05:24.761Z,56.00
2017-09-24T08:07:52.336Z,55.10
2017-09-24T08:10:21.262Z,53.57
2017-09-24T08:12:49.576Z,54.17
2017-09-24T08:15:17.083Z,51.00
2017-09-24T08:17:44.573Z,52.33
2017-09-24T08:20:12.050Z,56.37
2017-09-24T08:22:39.542Z,51.60
2017-09-24T08:25:07.009Z,49.60
2017-09-24T08:27:34.499Z,52.50
2017-09-24T08:30:01.978Z,52.30
2017-09-24T08:32:29.470Z,55.83
2017-09-24T08:34:56.971Z,50.17
2017-09-24T08:37:24.457Z,49.80
2017-09-24T08:39:52.040Z,51.73
2017-09-24T08:42:19.502Z,50.00
2017-09-24T08:44:47.010Z,52.47
2017-09-24T08:47:14.486Z,53.53
2017-09-24T08:49:41.954Z,62.57
2017-09-24T08:52:09.463Z,52.00
2017-09-24T08:54:37.909Z,51.53
2017-09-24T08:57:05.385Z,52.43
2017-09-24T08:59:32.853Z,49.97
2017-09-24T09:02:00.346Z,48.97
2017-09-24T09:04:27.805Z,49.07
2017-09-24T09:06:55.303Z,52.20
2017-09-24T09:09:22.762Z,51.47
2017-09-24T09:11:50.268Z,52.00
2017-09-24T09:14:17.751Z,50.83
2017-09-24T09:16:45.201Z,48.47
2017-09-24T09:19:12.670Z,48.70
2017-09-24T09:21:45.997Z,48.77
2017-09-24T09:24:13.688Z,47.83
2017-09-24T09:26:41.174Z,51.80
2017-09-24T09:29:08.681Z,49.93
2017-09-24T09:31:36.214Z,46.93
2017-09-24T09:34:15.728Z,47.93
2017-09-24T09:36:43.193Z,47.10
2017-09-24T09:39:10.671Z,47.47
2017-09-24T09:41:38.161Z,47.83
2017-09-24T09:44:05.623Z,49.50
2017-09-24T09:46:44.907Z,45.53
2017-09-24T09:49:12.366Z,44.50
2017-09-24T09:51:39.834Z,43.20
2017-09-24T09:54:07.322Z,44.80
2017-09-24T09:56:34.782Z,45.30
2017-09-24T09:59:07.039Z,42.33
2017-09-24T10:01:38.552Z,43.70
2017-09-24T10:04:06.795Z,42.53
2017-09-24T10:06:46.130Z,41.77
2017-09-24T10:09:25.351Z,40.03
2017-09-24T10:11:52.910Z,38.37
2017-09-24T10:14:20.438Z,38.27
2017-09-24T10:16:48.736Z,41.47
2017-09-24T10:19:21.649Z,41.40
2017-09-24T10:21:52.007Z,40.10
2017-09-24T10:24:19.538Z,34.87
2017-09-24T10:26:47.018Z,35.70
2017-09-24T10:32:07.370Z,32.67
2017-09-24T10:34:34.846Z,28.60
2017-09-24T10:37:08.984Z,27.50
2017-09-24T10:39:36.666Z,35.03
2017-09-24T10:42:04.172Z,36.33
2017-09-24T10:44:31.639Z,34.90
2017-09-24T10:46:59.167Z,31.57
2017-09-24T10:49:31.294Z,30.03
2017-09-24T10:51:59.978Z,28.50
2017-09-24T10:54:27.430Z,27.90
2017-09-24T10:56:54.886Z,26.47
2017-09-24T10:59:22.369Z,25.67
2017-09-24T11:01:49.830Z,27.73
2017-09-24T11:04:17.311Z,25.67
2017-09-24T11:06:44.850Z,24.23
2017-09-24T11:09:12.309Z,22.57
2017-09-24T11:11:39.839Z,19.00
2017-09-24T11:14:07.907Z,19.60
2017-09-24T11:16:37.900Z,21.07
2017-09-24T11:19:14.141Z,20.40
2017-09-24T11:21:41.923Z,20.33
2017-09-24T11:24:12.434Z,17.07
2017-09-24T11:26:39.937Z,17.53
2017-09-24T11:29:11.309Z,19.63
2017-09-24T11:31:38.767Z,18.17
2017-09-24T11:34:06.223Z,16.30
2017-09-24T11:36:33.710Z,16.53
2017-09-24T11:39:01.190Z,17.77
2017-09-24T11:41:28.666Z,16.37
2017-09-24T11:43:56.184Z,18.30
2017-09-24T11:46:29.930Z,19.60
2017-09-24T11:49:05.439Z,18.97
2017-09-24T11:51:32.925Z,23.47
2017-09-24T11:54:01.807Z,22.50
2017-09-24T11:56:32.324Z,23.70
2017-09-24T11:59:00.345Z,22.17
2017-09-24T12:01:32.603Z,21.97
2017-09-24T12:04:02.212Z,22.70
2017-09-24T12:06:30.451Z,23.47
2017-09-24T12:08:57.910Z,23.23
2017-09-24T12:11:25.447Z,22.97
2017-09-24T12:13:52.906Z,22.60
2017-09-24T12:16:22.259Z,22.27
2017-09-24T12:18:52.609Z,20.27
2017-09-24T12:21:23.016Z,22.03
2017-09-24T12:23:50.519Z,21.53
2017-09-24T12:26:17.974Z,19.97
2017-09-24T12:28:51.402Z,21.10
2017-09-24T12:31:18.863Z,19.37
2017-09-24T12:33:46.939Z,19.13
2017-09-24T12:36:14.538Z,21.40
2017-09-24T12:38:42.019Z,21.77
2017-09-24T12:41:12.789Z,19.03
2017-09-24T12:43:41.386Z,19.33
2017-09-24T12:46:08.861Z,19.90
2017-09-24T12:48:36.327Z,21.03
2017-09-24T12:51:07.001Z,23.50
2017-09-24T12:53:34.474Z,22.40
2017-09-24T12:56:02.043Z,20.60
2017-09-24T12:58:29.530Z,26.80
2017-09-24T13:00:56.987Z,26.97
2017-09-24T13:03:24.499Z,25.60
2017-09-24T13:05:52.000Z,25.50
2017-09-24T13:08:19.462Z,25.60
2017-09-24T13:10:47.047Z,26.83
2017-09-24T13:13:14.510Z,26.87
2017-09-24T13:15:41.977Z,26.07
2017-09-24T13:18:09.459Z,30.47
2017-09-24T13:20:36.917Z,28.60
2017-09-24T13:23:04.426Z,27.10
2017-09-24T13:25:32.065Z,26.90
2017-09-24T13:27:59.535Z,26.90
2017-09-24T13:30:27.002Z,26.20
2017-09-24T13:32:54.565Z,24.40
2017-09-24T13:35:22.426Z,23.10
2017-09-24T13:37:49.880Z,23.97
2017-09-24T13:40:17.694Z,26.40
2017-09-24T13:42:49.770Z,26.30
2017-09-24T13:45:17.250Z,24.20
2017-09-24T13:47:46.262Z,23.37
2017-09-24T13:53:00.243Z,23.43
2017-09-24T13:55:27.722Z,21.30
2017-09-24T13:57:55.189Z,22.50
2017-09-24T14:00:22.674Z,21.50
2017-09-24T14:02:50.137Z,22.20
2017-09-24T14:05:17.590Z,20.87
2017-09-24T14:07:45.062Z,21.60
2017-09-24T14:10:12.522Z,21.20
2017-09-24T14:12:39.974Z,23.00
2017-09-24T14:15:07.459Z,23.50
2017-09-24T14:17:40.325Z,20.77
2017-09-24T14:20:08.358Z,21.70
2017-09-24T14:22:35.823Z,23.10
2017-09-24T14:25:03.283Z,21.93
2017-09-24T14:27:30.783Z,23.40
2017-09-24T14:30:00.409Z,23.13
2017-09-24T14:32:27.890Z,23.27
2017-09-24T14:35:00.056Z,23.60
2017-09-24T14:37:30.562Z,22.17
2017-09-24T14:40:00.941Z,21.70
2017-09-24T14:42:28.955Z,21.63
2017-09-24T14:47:34.712Z,22.40
2017-09-24T14:50:02.189Z,25.33
2017-09-24T14:52:29.642Z,24.73
2017-09-24T14:54:57.131Z,21.80
2017-09-24T14:57:24.598Z,22.80
2017-09-24T14:59:55.875Z,24.10
2017-09-24T15:02:23.382Z,22.70
2017-09-24T15:04:50.846Z,21.23
2017-09-24T15:07:18.316Z,19.40
2017-09-24T15:09:45.794Z,21.77
2017-09-24T15:12:13.253Z,22.77
2017-09-24T15:14:40.731Z,21.10
2017-09-24T15:17:12.893Z,22.17
2017-09-24T15:19:41.066Z,20.70
2017-09-24T15:22:09.419Z,22.17
2017-09-24T15:24:37.854Z,22.57
2017-09-24T15:27:09.598Z,22.40
2017-09-24T15:29:38.191Z,22.00
2017-09-24T15:32:05.650Z,23.67
2017-09-24T15:34:33.114Z,23.43
2017-09-24T15:37:00.609Z,25.00
2017-09-24T15:39:28.099Z,24.60
2017-09-24T15:41:55.575Z,23.30
2017-09-24T15:44:23.054Z,24.00
2017-09-24T15:46:50.510Z,24.97
2017-09-24T15:49:17.966Z,25.63
2017-09-24T15:51:45.447Z,24.90
2017-09-24T15:54:12.902Z,26.10
2017-09-24T15:56:40.358Z,23.43
2017-09-24T15:59:07.846Z,20.50
2017-09-24T16:01:35.302Z,23.47
2017-09-24T16:04:02.796Z,22.00
2017-09-24T16:06:30.284Z,22.20
2017-09-24T16:08:57.889Z,23.90
2017-09-24T16:11:25.355Z,24.40
2017-09-24T16:13:53.538Z,22.40
2017-09-24T16:16:21.018Z,22.30
2017-09-24T16:18:48.482Z,21.93
2017-09-24T16:21:15.994Z,24.43
2017-09-24T16:23:43.459Z,24.23
2017-09-24T16:26:10.914Z,25.80
2017-09-24T16:28:38.401Z,25.70
2017-09-24T16:31:05.858Z,26.20
2017-09-24T16:33:35.541Z,26.63
2017-09-24T16:36:03.046Z,26.50
2017-09-24T16:38:31.010Z,26.87
2017-09-24T16:40:58.466Z,27.43
2017-09-24T16:43:25.946Z,26.80
2017-09-24T16:45:53.410Z,27.27
2017-09-24T16:48:20.866Z,27.20
2017-09-24T16:50:48.378Z,25.93
2017-09-24T16:53:15.842Z,25.40
2017-09-24T16:55:43.294Z,26.70
2017-09-24T16:58:10.779Z,29.30
2017-09-24T17:00:38.406Z,28.93
2017-09-24T17:03:05.879Z,30.77
2017-09-24T17:05:33.383Z,31.77
2017-09-24T17:08:00.857Z,30.47
2017-09-24T17:10:28.384Z,31.97
2017-09-24T17:12:55.870Z,32.70
2017-09-24T17:15:23.351Z,30.70
2017-09-24T17:17:50.810Z,31.23
2017-09-24T17:20:18.294Z,33.20
2017-09-24T17:22:45.767Z,32.40
2017-09-24T17:25:13.230Z,30.03
2017-09-24T17:27:40.713Z,31.13
2017-09-24T17:30:08.188Z,33.40
2017-09-24T17:32:35.665Z,30.17
2017-09-24T17:35:03.158Z,28.17
2017-09-24T17:37:30.783Z,31.03
2017-09-24T17:39:58.280Z,31.50
2017-09-24T17:42:25.829Z,30.27
2017-09-24T17:44:53.595Z,31.57
2017-09-24T17:47:21.070Z,30.30
2017-09-24T17:49:48.752Z,32.07
2017-09-24T17:52:16.428Z,31.80
2017-09-24T17:54:43.959Z,31.03
2017-09-24T17:57:11.767Z,30.20
2017-09-24T17:59:39.381Z,31.10
2017-09-24T18:02:07.005Z,28.20
2017-09-24T18:04:34.875Z,27.63
2017-09-24T18:07:02.586Z,28.50
2017-09-24T18:09:30.681Z,28.37
2017-09-24T18:11:59.077Z,28.27
2017-09-24T18:14:27.379Z,26.57
2017-09-24T18:16:55.673Z,28.77
2017-09-24T18:19:24.263Z,29.10
2017-09-24T18:21:52.712Z,29.80
2017-09-24T18:24:21.192Z,29.23
2017-09-24T18:26:49.642Z,28.10
2017-09-24T18:32:18.508Z,28.03
2017-09-24T18:34:46.990Z,27.77
2017-09-24T18:37:15.409Z,28.00
2017-09-24T18:39:44.176Z,26.60
2017-09-24T18:45:06.390Z,28.00
2017-09-24T18:47:34.924Z,26.17
2017-09-24T18:50:03.459Z,26.80
2017-09-24T18:52:32.371Z,25.80
2017-09-24T18:55:00.791Z,25.47
2017-09-24T18:57:29.176Z,25.47
2017-09-24T18:59:57.786Z,25.67
2017-09-24T19:02:26.206Z,26.07
2017-09-24T19:04:55.112Z,25.23
2017-09-24T19:07:23.849Z,25.63
2017-09-24T19:09:53.410Z,26.63
2017-09-24T19:12:21.947Z,24.03
2017-09-24T19:14:50.493Z,24.67
2017-09-24T19:17:18.955Z,25.00
2017-09-24T19:19:47.402Z,25.63
2017-09-24T19:22:15.968Z,26.07
2017-09-24T19:24:45.087Z,26.37
2017-09-24T19:27:13.758Z,27.03
2017-09-24T19:29:42.365Z,26.43
2017-09-24T19:32:10.857Z,26.07
2017-09-24T19:34:39.292Z,26.07
2017-09-24T19:37:07.873Z,25.80
2017-09-24T19:39:36.261Z,25.77
2017-09-24T19:42:04.624Z,23.10
2017-09-24T19:44:33.113Z,23.10
2017-09-24T19:47:01.672Z,21.63
2017-09-24T19:49:30.222Z,22.00
2017-09-24T19:51:58.902Z,22.07
2017-09-24T19:54:27.543Z,22.73
2017-09-24T19:56:56.375Z,22.00
2017-09-24T19:59:24.847Z,23.67
2017-09-24T20:01:53.217Z,20.70
2017-09-24T20:04:21.674Z,21.87
2017-09-24T20:06:50.072Z,20.90
2017-09-24T20:09:18.409Z,21.73
2017-09-24T20:11:46.864Z,23.10
2017-09-24T20:14:15.100Z,22.43
2017-09-24T20:16:43.123Z,23.00
2017-09-24T20:19:11.072Z,22.30
2017-09-24T20:21:38.586Z,23.40
2017-09-24T20:24:06.055Z,23.67
2017-09-24T20:26:33.538Z,24.50
2017-09-24T20:29:01.002Z,25.10
2017-09-24T20:31:28.458Z,23.90
2017-09-24T20:33:55.947Z,24.03
2017-09-24T20:36:23.406Z,23.33
2017-09-24T20:38:50.863Z,23.00
2017-09-24T20:41:18.366Z,24.03
2017-09-24T20:43:45.823Z,22.93
2017-09-24T20:46:13.282Z,22.50
2017-09-24T20:48:40.762Z,25.13
2017-09-24T20:51:08.222Z,25.53
2017-09-24T20:53:35.743Z,26.40
2017-09-24T20:56:03.230Z,24.97
2017-09-24T20:58:30.699Z,26.33
2017-09-24T21:00:58.317Z,24.67
2017-09-24T21:03:25.795Z,26.43
2017-09-24T21:05:53.246Z,26.87
2017-09-24T21:08:20.698Z,25.93
2017-09-24T21:10:48.174Z,25.50
2017-09-24T21:13:15.631Z,26.97
2017-09-24T21:15:43.103Z,25.90
2017-09-24T21:18:10.590Z,26.90
2017-09-24T21:20:38.050Z,25.20
2017-09-24T21:23:05.589Z,26.87
2017-09-24T21:25:33.234Z,27.67
2017-09-24T21:28:00.778Z,26.67
2017-09-24T21:30:28.290Z,27.83
2017-09-24T21:32:55.766Z,29.50
2017-09-24T21:35:23.306Z,29.37
2017-09-24T21:37:50.813Z,29.23
2017-09-24T21:40:18.274Z,26.70
2017-09-24T21:42:45.731Z,28.50
2017-09-24T21:45:13.282Z,27.87
2017-09-24T21:47:40.758Z,29.17
2017-09-24T21:50:08.214Z,30.30
2017-09-24T21:52:35.694Z,30.57
2017-09-24T21:55:03.155Z,29.23
2017-09-24T21:57:30.614Z,30.73
2017-09-24T21:59:58.093Z,30.83
2017-09-24T22:02:25.546Z,31.77
2017-09-24T22:04:53.016Z,30.37
2017-09-24T22:07:20.495Z,32.60
2017-09-24T22:09:47.950Z,30.13
2017-09-24T22:12:15.406Z,31.53
2017-09-24T22:14:42.890Z,30.20
2017-09-24T22:17:10.346Z,33.63
2017-09-24T22:19:37.807Z,32.30
2017-09-24T22:22:05.287Z,29.90
2017-09-24T22:24:32.747Z,31.27
2017-09-24T22:27:00.214Z,28.70
2017-09-24T22:29:27.705Z,32.30
2017-09-24T22:31:55.164Z,30.73
2017-09-24T22:34:22.619Z,32.80
2017-09-24T22:36:50.115Z,30.97
2017-09-24T22:39:17.634Z,33.27
2017-09-24T22:41:45.121Z,29.90
2017-09-24T22:44:12.603Z,31.80
2017-09-24T22:46:40.055Z,31.63
2017-09-24T22:49:07.522Z,30.87
2017-09-24T22:51:34.998Z,32.73
2017-09-24T22:54:02.459Z,33.00
2017-09-24T22:56:29.926Z,31.90
2017-09-24T22:58:57.410Z,31.87
2017-09-24T23:01:24.862Z,31.57
2017-09-24T23:03:52.323Z,33.73
2017-09-24T23:06:19.802Z,29.90
2017-09-24T23:08:47.266Z,32.30
2017-09-24T23:11:14.718Z,31.40
2017-09-24T23:13:42.198Z,31.97
2017-09-24T23:16:09.652Z,33.20
2017-09-24T23:18:37.106Z,30.77
2017-09-24T23:21:04.586Z,32.33
2017-09-24T23:23:32.041Z,31.87
2017-09-24T23:25:59.502Z,32.23
2017-09-24T23:28:26.982Z,33.70
2017-09-24T23:30:54.443Z,33.70
2017-09-24T23:33:21.902Z,32.50
2017-09-24T23:35:49.378Z,31.67
2017-09-24T23:38:16.835Z,32.00
2017-09-24T23:40:44.294Z,31.63
2017-09-24T23:43:11.770Z,33.90
2017-09-24T23:45:39.226Z,32.70
2017-09-24T23:48:06.690Z,32.27
2017-09-24T23:50:34.199Z,32.67
2017-09-24T23:53:01.666Z,32.57
2017-09-24T23:55:29.132Z,32.27
2017-09-24T23:57:56.613Z,33.83
